createdAt,value
2022-11-25T00:03:12.231Z,22
2022-11-25T00:08:28.623Z,26
2022-11-25T00:13:45.107Z,25
2022-11-25T00:19:01.938Z,22
2022-11-25T00:24:18.426Z,26
2022-11-25T00:29:34.973Z,23
2022-11-25T00:34:51.459Z,24
2022-11-25T00:40:07.992Z,26
2022-11-25T00:45:24.488Z,22
2022-11-25T00:50:40.988Z,23
2022-11-25T00:55:57.450Z,24
2022-11-25T01:01:14.035Z,26
2022-11-25T01:06:30.451Z,26
2022-11-25T01:11:46.988Z,28
2022-11-25T01:17:03.493Z,34
2022-11-25T01:23:14.427Z,29
2022-11-25T01:28:30.957Z,22
2022-11-25T01:33:47.438Z,25
2022-11-25T01:39:03.930Z,19
2022-11-25T01:44:20.451Z,23
2022-11-25T01:49:36.957Z,26
2022-11-25T01:54:58.374Z,26
2022-11-25T02:00:14.823Z,29
2022-11-25T02:05:33.925Z,30
2022-11-25T02:10:47.857Z,33
2022-11-25T02:16:04.423Z,29
2022-11-25T02:21:20.837Z,31
2022-11-25T02:26:37.435Z,36
2022-11-25T02:31:54.532Z,34
2022-11-25T02:37:11.016Z,35
2022-11-25T02:42:27.522Z,31
2022-11-25T02:47:44.012Z,32
2022-11-25T02:53:03.334Z,31
2022-11-25T02:58:19.828Z,32
2022-11-25T03:03:36.393Z,34
2022-11-25T03:08:52.892Z,32
2022-11-25T03:14:09.345Z,33
2022-11-25T03:19:25.849Z,32
2022-11-25T03:24:42.337Z,25
2022-11-25T03:29:58.850Z,29
2022-11-25T03:35:15.311Z,26
2022-11-25T03:40:31.819Z,28
2022-11-25T03:45:48.345Z,27
2022-11-25T03:51:04.839Z,26
2022-11-25T03:56:21.325Z,27
2022-11-25T04:01:41.479Z,27
2022-11-25T04:06:54.367Z,26
2022-11-25T04:12:10.551Z,23
2022-11-25T04:17:27.046Z,22
2022-11-25T04:22:43.609Z,21
2022-11-25T04:28:00.084Z,23
2022-11-25T04:33:16.527Z,24
2022-11-25T04:38:33.031Z,20
2022-11-25T04:43:49.547Z,23
2022-11-25T04:49:05.980Z,22
2022-11-25T04:54:22.495Z,22
2022-11-25T04:59:39.352Z,23
2022-11-25T05:04:55.855Z,21
2022-11-25T05:10:12.428Z,20
2022-11-25T05:15:28.892Z,23
2022-11-25T05:20:45.951Z,22
2022-11-25T05:26:03.324Z,22
2022-11-25T05:31:19.972Z,19
2022-11-25T05:36:36.338Z,18
2022-11-25T05:41:52.789Z,17
2022-11-25T05:47:09.234Z,21
2022-11-25T05:52:25.729Z,21
2022-11-25T05:57:42.212Z,18
2022-11-25T06:02:58.868Z,22
2022-11-25T06:08:15.300Z,25
2022-11-25T06:13:31.735Z,25
2022-11-25T06:18:48.354Z,25
2022-11-25T06:24:05.211Z,27
2022-11-25T06:29:21.666Z,25
2022-11-25T06:34:38.421Z,29
2022-11-25T06:39:54.735Z,30
2022-11-25T06:45:11.215Z,29
2022-11-25T06:50:27.791Z,31
2022-11-25T06:55:44.295Z,25
2022-11-25T07:01:03.302Z,26
2022-11-25T07:06:19.776Z,31
2022-11-25T07:11:36.769Z,34
2022-11-25T07:16:53.257Z,42
2022-11-25T07:22:09.779Z,37
2022-11-25T07:27:26.311Z,36
2022-11-25T07:32:42.828Z,45
2022-11-25T07:37:59.471Z,47
2022-11-25T07:43:15.898Z,46
2022-11-25T07:48:32.142Z,45
2022-11-25T07:53:48.638Z,43
2022-11-25T07:59:05.201Z,45
2022-11-25T08:04:21.703Z,44
2022-11-25T08:09:38.683Z,44
2022-11-25T08:14:55.343Z,46
2022-11-25T08:20:11.607Z,37
2022-11-25T08:25:28.591Z,31
2022-11-25T08:30:45.120Z,31
2022-11-25T08:36:03.282Z,26
2022-11-25T08:41:19.776Z,26
2022-11-25T08:46:36.341Z,23
2022-11-25T08:51:52.700Z,20
2022-11-25T08:57:09.779Z,22
2022-11-25T09:02:26.273Z,17
2022-11-25T09:07:42.792Z,18
2022-11-25T09:12:59.389Z,16
2022-11-25T09:18:15.722Z,16
2022-11-25T09:23:32.214Z,14
2022-11-25T09:28:48.659Z,15
2022-11-25T09:34:05.124Z,12
2022-11-25T09:39:21.584Z,10
2022-11-25T09:44:38.068Z,12
2022-11-25T09:49:59.506Z,12
2022-11-25T09:55:16.023Z,10
2022-11-25T10:00:32.507Z,9
2022-11-25T10:05:49.692Z,9
2022-11-25T10:11:05.428Z,8
2022-11-25T10:16:21.886Z,7
2022-11-25T10:21:39.240Z,7
2022-11-25T10:26:54.694Z,9
2022-11-25T10:32:16.050Z,8
2022-11-25T10:37:37.450Z,10
2022-11-25T10:42:53.817Z,9
2022-11-25T10:48:10.269Z,10
2022-11-25T10:53:26.754Z,10
2022-11-25T10:58:43.284Z,10
2022-11-25T11:03:59.659Z,10
2022-11-25T11:09:21.086Z,11
2022-11-25T11:14:38.027Z,11
2022-11-25T11:19:54.180Z,9
2022-11-25T11:25:10.645Z,10
2022-11-25T11:30:27.108Z,14
2022-11-25T11:35:43.562Z,14
2022-11-25T11:41:00.011Z,13
2022-11-25T11:46:21.664Z,12
2022-11-25T11:51:32.910Z,13
2022-11-25T11:56:54.869Z,14
2022-11-25T12:02:05.871Z,11
2022-11-25T12:07:22.308Z,13
2022-11-25T12:12:38.657Z,14
2022-11-25T12:17:55.129Z,13
2022-11-25T12:23:11.544Z,12
2022-11-25T12:28:28.071Z,13
2022-11-25T12:33:44.546Z,15
2022-11-25T12:39:01.872Z,14
2022-11-25T12:44:18.365Z,14
2022-11-25T12:49:34.843Z,14
2022-11-25T12:54:51.313Z,23
2022-11-25T13:00:39.179Z,22
2022-11-25T13:05:40.219Z,26
2022-11-25T13:10:40.726Z,22
2022-11-25T13:15:57.879Z,21
2022-11-25T13:21:13.706Z,24
2022-11-25T13:26:30.143Z,23
2022-11-25T13:31:46.727Z,19
2022-11-25T13:37:03.102Z,19
2022-11-25T13:42:19.616Z,21
2022-11-25T13:47:36.878Z,20
2022-11-25T13:52:58.247Z,20
2022-11-25T13:58:14.740Z,18
2022-11-25T14:03:31.321Z,19
2022-11-25T14:08:47.704Z,20
2022-11-25T14:14:05.272Z,19
2022-11-25T14:19:55.346Z,19
2022-11-25T14:24:38.209Z,21
2022-11-25T14:29:55.275Z,24
2022-11-25T14:35:11.736Z,22
2022-11-25T14:40:28.268Z,20
2022-11-25T14:45:45.240Z,23
2022-11-25T14:51:01.865Z,21
2022-11-25T14:56:18.351Z,19
2022-11-25T15:01:34.858Z,25
2022-11-25T15:06:51.078Z,26
2022-11-25T15:12:08.005Z,24
2022-11-25T15:17:24.659Z,26
2022-11-25T15:22:40.960Z,28
2022-11-25T15:27:58.230Z,26
2022-11-25T15:33:14.743Z,25
2022-11-25T15:38:31.235Z,24
2022-11-25T15:43:47.708Z,23
2022-11-25T15:49:04.207Z,21
2022-11-25T15:54:20.695Z,21
2022-11-25T15:59:37.351Z,24
2022-11-25T16:04:53.635Z,22
2022-11-25T16:10:10.139Z,25
2022-11-25T16:15:26.790Z,23
2022-11-25T16:20:43.100Z,22
2022-11-25T16:26:01.911Z,22
2022-11-25T16:31:18.156Z,25
2022-11-25T16:36:34.962Z,31
2022-11-25T16:41:51.527Z,35
2022-11-25T16:47:08.748Z,34
2022-11-25T16:52:25.241Z,38
2022-11-25T16:57:41.775Z,36
2022-11-25T17:02:58.348Z,36
2022-11-25T17:08:14.836Z,43
2022-11-25T17:13:31.268Z,37
2022-11-25T17:18:47.890Z,35
2022-11-25T17:24:06.218Z,36
2022-11-25T17:29:22.727Z,40
2022-11-25T17:34:39.761Z,37
2022-11-25T17:39:55.805Z,49
2022-11-25T17:45:12.273Z,50
2022-11-25T17:50:28.555Z,46
2022-11-25T17:55:44.751Z,49
2022-11-25T18:01:02.236Z,49
2022-11-25T18:06:18.868Z,48
2022-11-25T18:11:35.221Z,45
2022-11-25T18:16:51.996Z,44
2022-11-25T18:22:08.435Z,52
2022-11-25T18:27:24.985Z,50
2022-11-25T18:32:42.055Z,50
2022-11-25T18:37:58.550Z,48
2022-11-25T18:43:15.104Z,56
2022-11-25T18:48:32.197Z,53
2022-11-25T18:53:49.243Z,56
2022-11-25T18:59:05.830Z,52
2022-11-25T19:04:22.145Z,59
2022-11-25T19:09:38.786Z,58
2022-11-25T19:14:55.142Z,57
2022-11-25T19:20:11.603Z,52
2022-11-25T19:25:28.785Z,54
2022-11-25T19:30:45.321Z,51
2022-11-25T19:36:01.849Z,44
2022-11-25T19:41:18.310Z,48
2022-11-25T19:46:52.577Z,42
2022-11-25T19:51:51.373Z,33
2022-11-25T19:57:07.908Z,36
2022-11-25T20:02:24.499Z,33
2022-11-25T20:07:41.020Z,38
2022-11-25T20:12:57.423Z,46
2022-11-25T20:18:17.789Z,43
2022-11-25T20:23:30.239Z,44
2022-11-25T20:28:46.789Z,44
2022-11-25T20:34:03.712Z,43
2022-11-25T20:39:20.213Z,40
2022-11-25T20:44:37.141Z,36
2022-11-25T20:49:53.006Z,48
2022-11-25T20:55:09.614Z,49
2022-11-25T21:00:26.045Z,51
2022-11-25T21:05:42.426Z,49
2022-11-25T21:10:59.540Z,50
2022-11-25T21:16:16.709Z,52
2022-11-25T21:21:32.939Z,55
2022-11-25T21:26:50.070Z,55
2022-11-25T21:32:06.441Z,51
2022-11-25T21:37:22.646Z,52
2022-11-25T21:42:38.920Z,53
2022-11-25T21:47:55.664Z,53
2022-11-25T21:53:12.240Z,47
2022-11-25T21:58:28.725Z,52
2022-11-25T22:03:45.842Z,50
2022-11-25T22:09:03.394Z,37
2022-11-25T22:14:19.947Z,35
2022-11-25T22:19:36.494Z,42
2022-11-25T22:24:53.606Z,53
2022-11-25T22:30:10.711Z,56
2022-11-25T22:35:27.181Z,55
2022-11-25T22:40:43.488Z,56
2022-11-25T22:46:01.995Z,58
2022-11-25T22:51:18.492Z,56
2022-11-25T22:56:34.706Z,56
2022-11-25T23:01:52.455Z,55
2022-11-25T23:07:08.974Z,59
2022-11-25T23:12:25.470Z,51
2022-11-25T23:17:42.560Z,55
2022-11-25T23:22:59.870Z,55
2022-11-25T23:28:16.503Z,54
2022-11-25T23:33:32.786Z,54
2022-11-25T23:38:49.305Z,56
2022-11-25T23:44:06.126Z,51
2022-11-25T23:49:22.636Z,52
2022-11-25T23:54:39.542Z,48
2022-11-25T23:59:56.451Z,50
